createdAt,value
2022-10-15T00:00:49.022Z,64.72
2022-10-15T00:03:16.026Z,65.01
2022-10-15T00:05:42.861Z,64.55
2022-10-15T00:08:10.991Z,64.82
2022-10-15T00:10:38.393Z,64.72
2022-10-15T00:13:05.719Z,64.56
2022-10-15T00:15:32.805Z,64.80
2022-10-15T00:17:59.526Z,64.49
2022-10-15T00:20:26.234Z,64.59
2022-10-15T00:22:53.057Z,64.95
2022-10-15T00:25:19.804Z,64.93
2022-10-15T00:27:46.668Z,64.67
2022-10-15T00:30:13.733Z,64.77
2022-10-15T00:32:40.541Z,64.90
2022-10-15T00:35:07.762Z,64.79
2022-10-15T00:37:34.933Z,64.90
2022-10-15T00:42:29.281Z,64.86
2022-10-15T00:44:59.022Z,65.01
2022-10-15T00:47:30.738Z,64.63
2022-10-15T00:50:25.216Z,64.72
2022-10-15T00:52:57.820Z,64.65
2022-10-15T00:55:27.701Z,64.96
2022-10-15T00:57:56.253Z,64.84
2022-10-15T01:00:23.120Z,64.88
2022-10-15T01:02:50.096Z,64.88
2022-10-15T01:05:18.697Z,64.87
2022-10-15T01:07:45.406Z,64.78
2022-10-15T01:10:12.919Z,64.96
2022-10-15T01:12:48.908Z,64.74
2022-10-15T01:15:42.736Z,64.75
2022-10-15T01:18:15.879Z,64.85
2022-10-15T01:20:42.619Z,65.23
2022-10-15T01:23:30.325Z,65.40
2022-10-15T01:26:25.530Z,65.40
2022-10-15T01:29:27.340Z,65.44
2022-10-15T01:32:03.928Z,66.01
2022-10-15T01:34:33.593Z,66.08
2022-10-15T01:37:07.596Z,66.24
2022-10-15T01:39:41.869Z,65.86
2022-10-15T01:42:23.719Z,65.83
2022-10-15T01:45:03.513Z,65.83
2022-10-15T01:47:45.194Z,65.81
2022-10-15T01:50:15.311Z,65.52
2022-10-15T01:52:43.699Z,65.62
2022-10-15T01:55:14.395Z,65.38
2022-10-15T01:57:44.264Z,65.75
2022-10-15T02:00:11.898Z,66.31
2022-10-15T02:02:38.921Z,66.56
2022-10-15T02:05:10.566Z,66.40
2022-10-15T02:08:01.704Z,66.80
2022-10-15T02:10:40.007Z,66.90
2022-10-15T02:13:37.333Z,67.60
2022-10-15T02:16:14.248Z,66.83
2022-10-15T02:18:56.186Z,66.20
2022-10-15T02:21:35.841Z,66.50
2022-10-15T02:24:22.908Z,66.44
2022-10-15T02:26:53.884Z,66.62
2022-10-15T02:29:24.166Z,66.62
2022-10-15T02:31:52.619Z,65.93
2022-10-15T02:34:22.668Z,65.94
2022-10-15T02:36:49.925Z,66.23
2022-10-15T02:39:22.039Z,65.71
2022-10-15T02:41:49.245Z,66.01
2022-10-15T02:44:16.181Z,66.11
2022-10-15T02:46:43.084Z,66.04
2022-10-15T02:49:09.783Z,65.93
2022-10-15T02:51:37.424Z,66.00
2022-10-15T02:54:05.655Z,65.79
2022-10-15T02:56:32.453Z,65.68
2022-10-15T02:58:59.421Z,65.46
2022-10-15T03:01:26.187Z,65.55
2022-10-15T03:03:53.052Z,65.54
2022-10-15T03:06:19.821Z,65.74
2022-10-15T03:08:46.496Z,65.52
2022-10-15T03:11:13.289Z,65.30
2022-10-15T03:13:41.244Z,65.68
2022-10-15T03:16:09.784Z,65.78
2022-10-15T03:18:39.850Z,65.76
2022-10-15T03:21:08.067Z,66.05
2022-10-15T03:23:34.977Z,65.67
2022-10-15T03:26:01.903Z,66.14
2022-10-15T03:28:28.731Z,66.19
2022-10-15T03:30:55.520Z,67.10
2022-10-15T03:33:24.463Z,67.32
2022-10-15T03:35:52.980Z,67.58
2022-10-15T03:38:19.979Z,67.90
2022-10-15T03:40:46.781Z,68.32
2022-10-15T03:43:13.747Z,67.93
2022-10-15T03:45:40.790Z,67.78
2022-10-15T03:48:07.743Z,67.65
2022-10-15T03:50:35.108Z,67.33
2022-10-15T03:53:05.824Z,66.88
2022-10-15T03:55:33.330Z,66.92
2022-10-15T03:58:00.428Z,66.87
2022-10-15T04:00:27.343Z,66.53
2022-10-15T04:02:54.064Z,66.89
2022-10-15T04:05:21.161Z,66.90
2022-10-15T04:07:47.833Z,67.54
2022-10-15T04:10:14.650Z,67.45
2022-10-15T04:12:41.791Z,68.26
2022-10-15T04:15:08.951Z,68.68
2022-10-15T04:17:35.700Z,68.45
2022-10-15T04:20:03.063Z,68.61
2022-10-15T04:22:29.811Z,68.59
2022-10-15T04:24:56.484Z,68.56
2022-10-15T04:27:23.313Z,68.43
2022-10-15T04:29:50.045Z,68.67
2022-10-15T04:32:16.946Z,68.31
2022-10-15T04:34:45.865Z,68.44
2022-10-15T04:37:12.641Z,68.38
2022-10-15T04:39:39.403Z,68.91
2022-10-15T04:42:06.267Z,69.19
2022-10-15T04:44:33.035Z,69.39
2022-10-15T04:47:00.968Z,69.28
2022-10-15T04:49:27.776Z,69.56
2022-10-15T04:51:54.733Z,69.91
2022-10-15T04:54:21.480Z,69.66
2022-10-15T04:56:48.345Z,69.99
2022-10-15T04:59:15.178Z,70.38
2022-10-15T05:01:41.893Z,70.69
2022-10-15T05:04:12.399Z,70.54
2022-10-15T05:06:39.213Z,70.83
2022-10-15T05:09:05.931Z,71.08
2022-10-15T05:11:36.814Z,70.94
2022-10-15T05:14:04.228Z,70.99
2022-10-15T05:16:31.504Z,71.24
2022-10-15T05:19:04.213Z,71.36
2022-10-15T05:21:31.973Z,71.55
2022-10-15T05:23:59.739Z,71.14
2022-10-15T05:26:28.167Z,71.17
2022-10-15T05:28:57.939Z,71.12
2022-10-15T05:31:28.712Z,71.34
2022-10-15T05:33:56.087Z,71.38
2022-10-15T05:36:24.302Z,71.55
2022-10-15T05:38:53.767Z,72.11
2022-10-15T05:41:21.909Z,72.10
2022-10-15T05:43:50.987Z,72.07
2022-10-15T05:46:19.280Z,71.74
2022-10-15T05:48:50.375Z,71.74
2022-10-15T05:51:17.735Z,71.54
2022-10-15T05:53:46.468Z,71.75
2022-10-15T05:56:16.360Z,72.29
2022-10-15T05:58:43.296Z,72.26
2022-10-15T06:01:12.947Z,72.69
2022-10-15T06:03:41.428Z,73.06
2022-10-15T06:06:27.246Z,73.29
2022-10-15T06:08:54.817Z,73.48
2022-10-15T06:11:21.812Z,73.35
2022-10-15T06:13:48.684Z,73.78
2022-10-15T06:16:20.857Z,74.75
2022-10-15T06:18:52.620Z,74.90
2022-10-15T06:21:19.351Z,75.10
2022-10-15T06:23:46.052Z,75.51
2022-10-15T06:26:12.969Z,75.50
2022-10-15T06:28:40.062Z,75.35
2022-10-15T06:31:07.623Z,75.37
2022-10-15T06:33:35.521Z,75.59
2022-10-15T06:36:08.322Z,75.72
2022-10-15T06:38:35.186Z,75.98
2022-10-15T06:41:05.888Z,76.58
2022-10-15T06:43:35.169Z,76.20
2022-10-15T06:46:04.185Z,76.20
2022-10-15T06:48:31.241Z,76.59
2022-10-15T06:50:59.468Z,76.03
2022-10-15T06:53:26.247Z,76.25
2022-10-15T06:55:57.223Z,76.00
2022-10-15T06:58:24.194Z,76.40
2022-10-15T07:00:50.906Z,76.31
2022-10-15T07:03:17.845Z,76.14
2022-10-15T07:05:44.664Z,76.00
2022-10-15T07:08:15.508Z,76.05
2022-10-15T07:10:45.966Z,75.68
2022-10-15T07:13:12.701Z,75.20
2022-10-15T07:15:39.496Z,75.27
2022-10-15T07:18:06.405Z,75.65
2022-10-15T07:20:33.772Z,75.36
2022-10-15T07:23:02.354Z,74.96
2022-10-15T07:25:29.634Z,74.89
2022-10-15T07:27:57.352Z,74.89
2022-10-15T07:30:27.719Z,74.83
2022-10-15T07:32:58.577Z,75.06
2022-10-15T07:35:26.805Z,74.70
2022-10-15T07:37:53.787Z,74.75
2022-10-15T07:40:20.744Z,75.16
2022-10-15T07:42:57.670Z,75.04
2022-10-15T07:45:25.464Z,74.99
2022-10-15T07:47:52.943Z,75.21
2022-10-15T07:50:20.737Z,74.59
2022-10-15T07:52:48.236Z,74.43
2022-10-15T07:55:14.977Z,74.23
2022-10-15T07:57:41.716Z,73.74
2022-10-15T08:00:09.207Z,73.22
2022-10-15T08:02:35.928Z,73.21
2022-10-15T08:05:02.648Z,73.56
2022-10-15T08:07:29.720Z,73.35
2022-10-15T08:09:56.471Z,73.42
2022-10-15T08:12:23.380Z,73.65
2022-10-15T08:14:50.451Z,73.54
2022-10-15T08:17:17.164Z,73.41
2022-10-15T08:19:44.157Z,73.55
2022-10-15T08:22:12.610Z,73.59
2022-10-15T08:24:39.319Z,73.53
2022-10-15T08:27:06.042Z,73.87
2022-10-15T08:29:33.000Z,73.82
2022-10-15T08:31:59.748Z,73.93
2022-10-15T08:34:26.749Z,73.66
2022-10-15T08:36:53.659Z,74.10
2022-10-15T08:39:20.338Z,73.88
2022-10-15T08:41:57.388Z,74.22
2022-10-15T08:44:29.854Z,74.45
2022-10-15T08:47:08.452Z,73.92
2022-10-15T08:49:49.184Z,73.55
2022-10-15T08:52:26.792Z,73.90
2022-10-15T08:54:56.473Z,73.57
2022-10-15T08:57:46.180Z,73.61
2022-10-15T09:00:22.288Z,73.26
2022-10-15T09:02:59.135Z,72.73
2022-10-15T09:05:29.840Z,72.48
2022-10-15T09:08:31.211Z,71.82
2022-10-15T09:11:03.297Z,71.05
2022-10-15T09:13:42.547Z,70.57
2022-10-15T09:16:29.406Z,70.47
2022-10-15T09:18:59.052Z,69.82
2022-10-15T09:21:26.872Z,69.59
2022-10-15T09:24:01.656Z,69.28
2022-10-15T09:26:32.944Z,68.84
2022-10-15T09:29:16.716Z,68.80
2022-10-15T09:32:06.531Z,68.88
2022-10-15T09:34:51.037Z,68.61
2022-10-15T09:37:36.547Z,68.60
2022-10-15T09:40:15.500Z,68.54
2022-10-15T09:42:44.834Z,68.50
2022-10-15T09:45:14.809Z,68.16
2022-10-15T09:47:42.218Z,68.35
2022-10-15T09:50:12.497Z,67.90
2022-10-15T09:52:56.114Z,68.02
2022-10-15T09:55:38.309Z,68.06
2022-10-15T09:58:28.224Z,68.02
2022-10-15T10:01:02.696Z,68.27
2022-10-15T10:03:32.584Z,67.61
2022-10-15T10:06:02.764Z,68.02
2022-10-15T10:08:34.551Z,67.77
2022-10-15T10:11:03.379Z,68.04
2022-10-15T10:13:40.299Z,68.04
2022-10-15T10:16:12.020Z,67.93
2022-10-15T10:18:39.994Z,67.87
2022-10-15T10:21:21.789Z,67.63
2022-10-15T10:23:48.684Z,67.70
2022-10-15T10:26:15.633Z,67.58
2022-10-15T10:28:53.729Z,67.33
2022-10-15T10:31:33.444Z,67.09
2022-10-15T10:34:04.128Z,67.17
2022-10-15T10:36:34.608Z,67.17
2022-10-15T10:39:10.665Z,67.01
2022-10-15T10:42:01.428Z,66.96
2022-10-15T10:44:32.563Z,66.64
2022-10-15T10:47:10.555Z,66.46
2022-10-15T10:49:39.180Z,66.00
2022-10-15T10:52:07.043Z,65.96
2022-10-15T10:54:34.658Z,65.70
2022-10-15T10:57:01.876Z,65.46
2022-10-15T10:59:37.117Z,65.21
2022-10-15T11:02:06.669Z,65.06
2022-10-15T11:04:36.692Z,64.64
2022-10-15T11:07:13.593Z,64.81
2022-10-15T11:09:52.367Z,64.76
2022-10-15T11:12:25.973Z,64.60
2022-10-15T11:14:52.487Z,65.21
2022-10-15T11:18:00.783Z,64.76
2022-10-15T11:20:48.295Z,64.23
2022-10-15T11:23:38.458Z,64.17
2022-10-15T11:26:23.371Z,64.05
2022-10-15T11:29:20.888Z,64.10
2022-10-15T11:32:02.708Z,64.27
2022-10-15T11:35:04.119Z,64.17
2022-10-15T11:37:48.904Z,63.68
2022-10-15T11:40:45.156Z,64.05
2022-10-15T11:43:25.055Z,63.88
2022-10-15T11:45:51.733Z,64.18
2022-10-15T11:48:53.090Z,64.13
2022-10-15T11:51:19.857Z,64.07
2022-10-15T11:53:49.181Z,64.23
2022-10-15T11:56:19.963Z,64.31
2022-10-15T11:58:54.774Z,64.51
2022-10-15T12:01:31.669Z,64.99
2022-10-15T12:04:03.927Z,64.87
2022-10-15T12:06:36.286Z,64.76
2022-10-15T12:09:05.560Z,65.19
2022-10-15T12:11:53.915Z,64.92
2022-10-15T12:14:44.573Z,65.22
2022-10-15T12:17:11.281Z,64.98
2022-10-15T12:19:47.182Z,65.10
2022-10-15T12:22:34.139Z,65.31
2022-10-15T12:25:01.917Z,65.20
2022-10-15T12:27:34.810Z,65.09
2022-10-15T12:30:04.324Z,65.26
2022-10-15T12:32:48.940Z,65.13
2022-10-15T12:35:15.781Z,65.34
2022-10-15T12:37:46.060Z,65.34
2022-10-15T12:40:28.478Z,65.23
2022-10-15T12:43:05.356Z,65.57
2022-10-15T12:45:51.016Z,65.42
2022-10-15T12:48:29.997Z,65.90
2022-10-15T12:51:21.649Z,65.78
2022-10-15T12:53:50.005Z,66.16
2022-10-15T12:56:16.624Z,66.25
2022-10-15T12:58:46.597Z,66.56
2022-10-15T13:01:13.307Z,66.59
2022-10-15T13:03:52.413Z,66.57
2022-10-15T13:06:24.667Z,66.48
2022-10-15T13:09:00.341Z,66.50
2022-10-15T13:11:45.203Z,66.57
2022-10-15T13:14:12.070Z,66.34
2022-10-15T13:16:44.772Z,66.36
2022-10-15T13:19:24.185Z,66.33
2022-10-15T13:21:54.668Z,66.50
2022-10-15T13:24:24.172Z,66.41
2022-10-15T13:26:51.742Z,66.57
2022-10-15T13:29:21.306Z,66.70
2022-10-15T13:31:48.988Z,67.35
2022-10-15T13:34:33.674Z,67.48
2022-10-15T13:37:03.439Z,67.58
2022-10-15T13:42:25.675Z,67.74
2022-10-15T13:45:16.870Z,68.15
2022-10-15T13:47:49.049Z,68.15
2022-10-15T13:50:21.644Z,68.18
2022-10-15T13:52:50.943Z,68.40
2022-10-15T13:55:29.731Z,68.57
2022-10-15T13:58:03.650Z,68.35
2022-10-15T14:00:33.784Z,68.13
2022-10-15T14:03:31.136Z,68.08
2022-10-15T14:06:10.273Z,68.02
2022-10-15T14:08:37.453Z,67.74
2022-10-15T14:11:04.278Z,68.04
2022-10-15T14:13:31.027Z,67.79
2022-10-15T14:16:20.892Z,67.74
2022-10-15T14:18:51.429Z,67.72
2022-10-15T14:21:22.350Z,67.19
2022-10-15T14:23:50.182Z,66.97
2022-10-15T14:26:24.680Z,66.52
2022-10-15T14:28:52.432Z,66.23
2022-10-15T14:31:32.096Z,66.33
2022-10-15T14:33:58.821Z,66.45
2022-10-15T14:36:29.687Z,66.22
2022-10-15T14:39:34.310Z,65.90
2022-10-15T14:42:27.101Z,66.00
2022-10-15T14:44:54.023Z,65.64
2022-10-15T14:47:30.613Z,65.76
2022-10-15T14:50:00.815Z,66.27
2022-10-15T14:52:30.679Z,66.07
2022-10-15T14:55:15.503Z,66.04
2022-10-15T14:57:45.017Z,65.95
2022-10-15T15:00:17.731Z,65.52
2022-10-15T15:02:44.561Z,65.32
2022-10-15T15:05:11.346Z,65.61
2022-10-15T15:07:39.568Z,65.69
2022-10-15T15:10:08.885Z,65.69
2022-10-15T15:12:38.644Z,65.61
2022-10-15T15:15:14.165Z,65.70
2022-10-15T15:17:40.863Z,65.65
2022-10-15T15:20:08.067Z,65.44
2022-10-15T15:22:36.361Z,65.44
2022-10-15T15:25:10.781Z,65.03
2022-10-15T15:27:37.814Z,65.02
2022-10-15T15:30:06.847Z,64.47
2022-10-15T15:32:34.104Z,64.50
2022-10-15T15:35:01.155Z,64.38
2022-10-15T15:37:30.365Z,64.29
2022-10-15T15:39:57.077Z,64.56
2022-10-15T15:42:25.782Z,64.29
2022-10-15T15:44:52.655Z,64.60
2022-10-15T15:47:19.356Z,64.16
2022-10-15T15:49:46.112Z,64.13
2022-10-15T15:52:14.467Z,64.26
2022-10-15T15:54:41.620Z,64.40
2022-10-15T15:57:08.589Z,64.18
2022-10-15T15:59:35.397Z,64.04
2022-10-15T16:02:02.209Z,64.07
2022-10-15T16:04:29.092Z,64.49
2022-10-15T16:06:55.867Z,64.23
2022-10-15T16:09:23.634Z,64.63
2022-10-15T16:11:51.189Z,64.61
2022-10-15T16:14:18.053Z,64.72
2022-10-15T16:16:44.796Z,65.06
2022-10-15T16:19:11.771Z,65.02
2022-10-15T16:21:40.873Z,65.51
2022-10-15T16:24:07.918Z,65.80
2022-10-15T16:26:34.887Z,65.84
2022-10-15T16:29:01.712Z,66.11
2022-10-15T16:31:30.411Z,66.40
2022-10-15T16:33:57.636Z,66.30
2022-10-15T16:36:24.584Z,66.74
2022-10-15T16:38:51.625Z,66.38
2022-10-15T16:41:21.389Z,66.44
2022-10-15T16:43:48.976Z,66.64
2022-10-15T16:46:19.585Z,66.78
2022-10-15T16:48:46.783Z,66.86
2022-10-15T16:51:16.270Z,67.01
2022-10-15T16:53:44.431Z,67.01
2022-10-15T16:56:22.775Z,67.28
2022-10-15T16:58:50.136Z,67.74
2022-10-15T17:01:20.838Z,68.24
2022-10-15T17:03:48.386Z,68.60
2022-10-15T17:06:22.821Z,68.91
2022-10-15T17:08:54.625Z,69.33
2022-10-15T17:11:30.028Z,69.66
2022-10-15T17:13:59.395Z,69.61
2022-10-15T17:16:33.097Z,70.11
2022-10-15T17:19:00.394Z,70.28
2022-10-15T17:21:29.458Z,70.54
2022-10-15T17:23:58.859Z,70.70
2022-10-15T17:26:28.832Z,71.00
2022-10-15T17:28:55.927Z,71.35
2022-10-15T17:31:25.071Z,71.63
2022-10-15T17:34:00.983Z,71.89
2022-10-15T17:36:30.116Z,72.31
2022-10-15T17:39:00.211Z,72.39
2022-10-15T17:41:30.031Z,72.85
2022-10-15T17:43:57.745Z,73.12
2022-10-15T17:46:27.722Z,73.22
2022-10-15T17:48:54.961Z,73.56
2022-10-15T17:51:25.228Z,73.64
2022-10-15T17:53:53.329Z,73.78
2022-10-15T17:56:28.876Z,73.84
2022-10-15T17:58:56.604Z,74.42
2022-10-15T18:01:45.843Z,74.12
2022-10-15T18:04:16.035Z,74.22
2022-10-15T18:06:45.114Z,74.26
2022-10-15T18:09:12.121Z,74.35
2022-10-15T18:11:38.901Z,74.13
2022-10-15T18:14:05.937Z,74.70
2022-10-15T18:16:32.936Z,74.86
2022-10-15T18:18:59.932Z,74.76
2022-10-15T18:21:28.480Z,74.88
2022-10-15T18:23:58.414Z,74.93
2022-10-15T18:26:25.072Z,75.08
2022-10-15T18:28:53.818Z,74.96
2022-10-15T18:31:21.733Z,75.35
2022-10-15T18:33:52.114Z,75.14
2022-10-15T18:36:22.217Z,75.28
2022-10-15T18:38:49.561Z,75.55
2022-10-15T18:41:33.395Z,75.60
2022-10-15T18:44:02.845Z,75.51
2022-10-15T18:46:31.189Z,75.72
2022-10-15T18:48:58.655Z,75.69
2022-10-15T18:51:25.689Z,75.88
2022-10-15T18:53:53.387Z,76.19
2022-10-15T18:56:20.984Z,76.10
2022-10-15T18:58:48.377Z,76.20
2022-10-15T19:01:39.283Z,76.50
2022-10-15T19:04:09.348Z,76.40
2022-10-15T19:06:37.772Z,76.72
2022-10-15T19:09:07.495Z,76.85
2022-10-15T19:11:35.145Z,76.74
2022-10-15T19:14:02.001Z,77.55
2022-10-15T19:16:29.132Z,77.80
2022-10-15T19:18:56.359Z,78.30
2022-10-15T19:21:23.068Z,78.61
2022-10-15T19:23:49.940Z,78.52
2022-10-15T19:26:16.774Z,78.66
2022-10-15T19:28:43.932Z,79.05
2022-10-15T19:31:18.180Z,79.26
2022-10-15T19:33:44.881Z,79.75
2022-10-15T19:36:11.746Z,80.46
2022-10-15T19:38:38.752Z,80.65
2022-10-15T19:41:05.624Z,80.85
2022-10-15T19:43:32.386Z,80.79
2022-10-15T19:46:04.073Z,81.04
2022-10-15T19:48:31.169Z,81.41
2022-10-15T19:51:01.781Z,81.49
2022-10-15T19:53:28.696Z,81.80
2022-10-15T19:55:57.644Z,81.88
2022-10-15T19:58:25.058Z,82.05
2022-10-15T20:00:54.075Z,81.73
2022-10-15T20:03:21.848Z,82.32
2022-10-15T20:05:49.210Z,82.11
2022-10-15T20:08:16.268Z,81.97
2022-10-15T20:10:47.180Z,82.38
2022-10-15T20:13:15.899Z,82.26
2022-10-15T20:15:43.913Z,82.60
2022-10-15T20:18:11.943Z,82.75
2022-10-15T20:20:41.277Z,82.59
2022-10-15T20:23:08.223Z,82.91
2022-10-15T20:25:38.144Z,82.69
2022-10-15T20:28:04.832Z,83.59
2022-10-15T20:30:31.888Z,82.97
2022-10-15T20:32:58.861Z,83.43
2022-10-15T20:35:25.673Z,83.41
2022-10-15T20:37:52.398Z,83.58
2022-10-15T20:40:19.189Z,83.62
2022-10-15T20:42:45.994Z,83.82
2022-10-15T20:45:14.682Z,83.44
2022-10-15T20:47:45.370Z,83.57
2022-10-15T20:50:16.881Z,83.66
2022-10-15T20:52:43.756Z,83.91
2022-10-15T20:55:11.112Z,83.77
2022-10-15T20:57:38.573Z,83.76
2022-10-15T21:00:08.057Z,84.19
2022-10-15T21:02:35.321Z,83.93
2022-10-15T21:05:02.592Z,84.19
2022-10-15T21:07:29.422Z,84.08
2022-10-15T21:09:56.216Z,84.05
2022-10-15T21:12:23.252Z,83.89
2022-10-15T21:14:50.132Z,84.63
2022-10-15T21:17:16.861Z,84.68
2022-10-15T21:19:43.739Z,84.44
2022-10-15T21:22:10.481Z,84.30
2022-10-15T21:24:38.376Z,84.65
2022-10-15T21:27:05.403Z,84.51
2022-10-15T21:29:32.119Z,84.60
2022-10-15T21:31:58.837Z,84.27
2022-10-15T21:34:27.911Z,84.99
2022-10-15T21:36:55.359Z,84.56
2022-10-15T21:39:22.466Z,84.81
2022-10-15T21:41:49.434Z,84.46
2022-10-15T21:44:16.254Z,84.74
2022-10-15T21:46:43.551Z,84.13
2022-10-15T21:49:10.550Z,84.28
2022-10-15T21:51:38.222Z,84.30
2022-10-15T21:54:06.055Z,84.48
2022-10-15T21:56:33.873Z,84.35
2022-10-15T21:59:00.992Z,84.29
2022-10-15T22:01:33.194Z,84.16
2022-10-15T22:04:02.916Z,84.27
2022-10-15T22:06:29.824Z,84.20
2022-10-15T22:08:56.532Z,83.76
2022-10-15T22:13:59.201Z,84.17
2022-10-15T22:16:28.228Z,84.08
2022-10-15T22:18:56.701Z,83.95
2022-10-15T22:21:29.498Z,83.87
2022-10-15T22:23:59.160Z,84.08
2022-10-15T22:26:32.703Z,84.04
2022-10-15T22:29:01.332Z,83.79
2022-10-15T22:31:28.956Z,84.00
2022-10-15T22:33:58.192Z,84.09
2022-10-15T22:36:27.663Z,83.74
2022-10-15T22:39:05.284Z,83.64
2022-10-15T22:41:39.811Z,83.58
2022-10-15T22:44:11.593Z,83.55
2022-10-15T22:46:39.660Z,83.97
2022-10-15T22:49:08.357Z,83.91
2022-10-15T22:51:35.577Z,83.72
2022-10-15T22:54:02.481Z,83.75
2022-10-15T22:56:29.798Z,84.05
2022-10-15T22:58:58.461Z,83.62
2022-10-15T23:01:27.727Z,83.67
2022-10-15T23:04:01.703Z,83.71
2022-10-15T23:06:29.501Z,83.96
2022-10-15T23:08:57.032Z,84.19
2022-10-15T23:11:32.632Z,84.18
2022-10-15T23:14:05.893Z,84.22
2022-10-15T23:16:35.365Z,84.32
2022-10-15T23:19:06.189Z,84.45
2022-10-15T23:21:35.798Z,84.55
2022-10-15T23:24:02.937Z,84.89
2022-10-15T23:26:30.110Z,84.63
2022-10-15T23:28:58.832Z,84.57
2022-10-15T23:31:28.037Z,84.92
2022-10-15T23:33:56.650Z,85.18
2022-10-15T23:36:25.547Z,85.01
2022-10-15T23:38:54.897Z,85.05
2022-10-15T23:41:22.115Z,85.01
2022-10-15T23:43:48.968Z,85.06
2022-10-15T23:46:16.068Z,85.35
2022-10-15T23:48:42.934Z,85.49
2022-10-15T23:51:20.984Z,85.38
2022-10-15T23:53:48.102Z,85.50
2022-10-15T23:56:15.756Z,85.59
2022-10-15T23:58:43.058Z,86.02
